Time;durP1;ratioP1;P1;durP2;ratioP2;P2;SDS_P1;SDS_P2;PMS_P1;PMS_P2;Temp;Humidity;BMP_temperature;BMP_pressure;BME280_temperature;BME280_humidity;BME280_pressure;Samples;Min_cycle;Max_cycle;Signal;HPM_P1;HPM_P2
2023/09/18 00:00:25;;;;;;;2.43;1.97;;;22.90;99.90;;;23.38;71.86;99842.25;4868032;29;20648;-66
2023/09/18 00:02:52;;;;;;;2.50;2.30;;;22.80;99.90;;;23.36;71.96;99838.97;4877547;29;20989;-65
2023/09/18 00:05:19;;;;;;;2.30;2.10;;;22.70;99.90;;;23.34;72.38;99839.19;4877922;29;20728;-66
2023/09/18 00:07:46;;;;;;;3.20;2.30;;;22.70;99.90;;;23.34;72.25;99831.19;4851157;29;20645;-67
2023/09/18 00:10:13;;;;;;;3.07;2.23;;;22.70;99.90;;;23.38;72.33;99826.28;4854341;29;21016;-64
2023/09/18 00:12:40;;;;;;;1.87;1.77;;;22.80;99.90;;;23.37;71.87;99830.78;4840939;29;20738;-66
2023/09/18 00:15:10;;;;;;;2.50;2.27;;;22.80;99.90;;;23.36;71.91;99820.34;4856688;29;20680;-66
2023/09/18 00:17:37;;;;;;;2.63;2.47;;;22.80;99.90;;;23.38;72.25;99816.47;4859589;29;20624;-65
2023/09/18 00:20:06;;;;;;;2.30;2.20;;;22.80;99.90;;;23.41;71.86;99816.00;4860870;29;20723;-67
2023/09/18 00:22:33;;;;;;;2.17;2.07;;;22.80;99.90;;;23.44;71.75;99814.78;4858275;29;20663;-65
2023/09/18 00:25:03;;;;;;;4.80;2.13;;;22.80;99.90;;;23.48;71.45;99806.16;4860583;29;20655;-66
2023/09/18 00:27:32;;;;;;;1.90;1.80;;;22.90;99.90;;;23.50;71.02;99806.75;4859972;29;20628;-66
2023/09/18 00:29:59;;;;;;;2.80;2.03;;;22.90;99.90;;;23.54;70.90;99801.81;4858431;29;20640;-66
2023/09/18 00:32:27;;;;;;;3.80;2.20;;;22.90;99.90;;;23.54;71.26;99809.81;4860345;29;20657;-67
2023/09/18 00:34:55;;;;;;;2.47;2.27;;;22.90;99.90;;;23.49;71.11;99801.66;4859872;29;20713;-65
2023/09/18 00:37:22;;;;;;;1.70;1.67;;;22.90;99.90;;;23.46;71.42;99802.06;4853716;29;20645;-65
2023/09/18 00:39:50;;;;;;;1.83;1.73;;;22.90;99.90;;;23.39;71.64;99806.59;4843090;29;20739;-65
2023/09/18 00:42:17;;;;;;;2.00;1.90;;;22.80;99.90;;;23.34;71.54;99796.59;4853908;29;20654;-66
2023/09/18 00:44:45;;;;;;;2.13;2.03;;;22.70;99.90;;;23.30;71.86;99798.00;4863361;29;20667;-65
2023/09/18 00:47:14;;;;;;;1.53;1.43;;;22.70;99.90;;;23.29;71.51;99795.56;4859364;29;20629;-66
2023/09/18 00:49:44;;;;;;;2.00;1.90;;;22.70;99.90;;;23.28;71.92;99783.28;4841284;29;20640;-65
2023/09/18 00:52:11;;;;;;;2.10;1.67;;;22.70;99.90;;;23.26;72.05;99786.16;4860107;29;21076;-66
2023/09/18 00:54:40;;;;;;;1.73;1.63;;;22.70;99.90;;;23.23;71.62;99775.13;4842496;29;20684;-65
2023/09/18 00:57:10;;;;;;;1.77;1.73;;;22.70;99.90;;;23.18;72.47;99781.09;4855217;29;20684;-67
2023/09/18 00:59:38;;;;;;;1.90;1.80;;;22.60;99.90;;;23.17;72.11;99781.31;4842832;29;20624;-67
2023/09/18 01:02:05;;;;;;;2.07;1.97;;;22.60;99.90;;;23.11;72.12;99770.47;4849964;29;20631;-66
2023/09/18 01:04:33;;;;;;;2.53;2.33;;;22.50;99.90;;;23.10;72.25;99774.19;4831548;29;20650;-67
2023/09/18 01:07:04;;;;;;;1.90;1.80;;;22.50;99.90;;;23.13;72.18;99781.72;4859239;29;20660;-66
2023/09/18 01:09:32;;;;;;;1.90;1.80;;;22.50;99.90;;;23.15;72.34;99778.84;4838472;29;20645;-65
2023/09/18 01:12:26;;;;;;;2.13;2.03;;;22.50;99.90;;;23.17;72.05;99793.56;4854012;29;20727;-66
2023/09/18 01:15:30;;;;;;;2.20;2.10;;;22.60;99.90;;;23.22;71.66;99790.28;4853930;29;20781;-66
2023/09/18 01:17:57;;;;;;;1.80;1.70;;;22.60;99.90;;;23.25;71.55;99791.69;4840844;29;20730;-66
2023/09/18 01:20:24;;;;;;;2.80;1.60;;;22.70;99.90;;;23.23;71.24;99783.94;4895401;23;20694;-65
2023/09/18 01:22:51;;;;;;;1.77;1.67;;;22.70;99.90;;;23.22;71.35;99782.28;4885312;29;20671;-66
2023/09/18 01:25:18;;;;;;;3.17;2.10;;;22.70;99.90;;;23.20;71.69;99780.88;4900020;29;20643;-66
2023/09/18 01:27:45;;;;;;;2.50;1.97;;;22.60;99.90;;;23.17;71.83;99778.66;4895563;29;21011;-67
2023/09/18 01:30:12;;;;;;;2.40;2.20;;;22.60;99.90;;;23.16;72.16;99785.81;4894412;29;20678;-67
2023/09/18 01:32:40;;;;;;;1.77;1.67;;;22.50;99.90;;;23.15;72.11;99784.97;4880544;29;20626;-66
2023/09/18 01:35:10;;;;;;;2.17;2.07;;;22.50;99.90;;;23.19;72.04;99781.91;4895883;29;20675;-67
2023/09/18 01:37:37;;;;;;;2.73;1.87;;;22.60;99.90;;;23.14;72.20;99778.03;4879992;29;20631;-68
2023/09/18 01:40:06;;;;;;;2.00;1.80;;;22.60;99.90;;;23.08;71.91;99789.50;4895032;29;20694;-67
2023/09/18 01:42:35;;;;;;;1.90;1.80;;;22.50;99.90;;;23.00;72.59;99826.16;4895090;29;21081;-67
2023/09/18 01:45:02;;;;;;;3.60;2.50;;;22.40;99.90;;;22.97;72.65;99915.22;4894589;29;20654;-65
2023/09/18 01:47:30;;;;;;;3.07;2.30;;;22.40;99.90;;;22.93;73.83;99913.19;4896096;29;20630;-67
2023/09/18 01:49:57;;;;;;;2.00;1.90;;;22.40;99.90;;;22.91;78.10;99885.97;4879283;29;20667;-67
2023/09/18 01:52:24;;;;;;;5.63;1.97;;;22.30;99.90;;;22.82;79.53;99842.81;4896418;29;21180;-68
2023/09/18 01:54:51;;;;;;;2.97;1.87;;;22.30;99.90;;;22.80;81.32;99850.19;4893826;29;21211;-67
2023/09/18 01:57:17;;;;;;;1.90;1.77;;;22.20;99.90;;;22.73;82.54;99821.94;4896052;29;20662;-69
2023/09/18 01:59:45;;;;;;;1.77;1.70;;;22.20;99.90;;;22.69;82.35;99815.41;4895523;29;20685;-65
2023/09/18 02:02:13;;;;;;;8.00;2.03;;;22.10;99.90;;;22.59;83.29;99801.75;4895855;29;20627;-64
2023/09/18 02:04:51;;;;;;;1.73;1.53;;;22.00;99.90;;;22.55;83.92;99806.63;4896604;29;21031;-66
2023/09/18 02:07:35;;;;;;;2.10;1.90;;;22.00;99.90;;;22.49;83.35;99827.91;4895675;29;20662;-66
2023/09/18 02:10:03;;;;;;;2.10;2.00;;;22.00;99.90;;;22.43;83.57;99832.19;4889619;29;20723;-66
2023/09/18 02:12:30;;;;;;;1.73;1.60;;;21.90;99.90;;;22.38;85.51;99843.44;4895492;29;20622;-68
2023/09/18 02:14:58;;;;;;;2.20;1.90;;;21.90;99.90;;;22.29;86.12;99835.88;4883308;29;20749;-65
2023/09/18 02:17:25;;;;;;;2.00;1.90;;;21.70;99.90;;;22.27;86.58;99848.56;4895457;29;20673;-66
2023/09/18 02:19:52;;;;;;;3.13;1.73;;;21.70;99.90;;;22.23;86.70;99853.44;4893740;29;20666;-66
2023/09/18 02:22:19;;;;;;;2.43;2.10;;;21.70;99.90;;;22.24;87.07;99854.28;4896275;29;21184;-66
2023/09/18 02:24:46;;;;;;;2.30;2.17;;;21.60;99.90;;;22.28;87.59;99860.81;4894534;29;20675;-67
2023/09/18 02:27:13;;;;;;;1.83;1.73;;;21.70;99.90;;;22.35;88.22;99861.63;4894980;29;20742;-66
2023/09/18 02:29:44;;;;;;;3.83;2.50;;;21.70;99.90;;;22.37;88.46;99854.28;4895865;29;20646;-66
2023/09/18 02:32:12;;;;;;;2.50;2.30;;;21.80;99.90;;;22.42;88.78;99851.00;4894935;29;20734;-66
2023/09/18 02:34:39;;;;;;;2.53;2.37;;;21.80;99.90;;;22.48;88.93;99844.88;4896009;29;20719;-66
2023/09/18 02:37:06;;;;;;;2.07;1.97;;;21.90;99.90;;;22.48;89.42;99840.38;4908628;29;20725;-68
2023/09/18 02:39:33;;;;;;;2.30;2.10;;;21.90;99.90;;;22.46;89.61;99837.09;4895702;29;20647;-66
2023/09/18 02:42:00;;;;;;;3.50;2.07;;;21.90;99.90;;;22.45;89.43;99838.13;4895343;29;20623;-69
2023/09/18 02:44:27;;;;;;;2.47;2.27;;;21.90;99.90;;;22.34;88.54;99838.72;4888297;29;20639;-65
2023/09/18 02:46:54;;;;;;;2.27;2.17;;;21.80;99.90;;;22.22;88.09;99840.38;4895163;29;21234;-66
2023/09/18 02:49:21;;;;;;;1.73;1.63;;;21.70;99.90;;;22.14;89.07;99825.47;4894743;29;20714;-65
2023/09/18 02:51:49;;;;;;;2.37;2.17;;;21.60;99.90;;;22.12;89.16;99829.34;4895926;29;20623;-66
2023/09/18 02:54:16;;;;;;;3.20;2.90;;;21.60;99.90;;;22.06;89.00;99824.84;4895006;29;20654;-65
2023/09/18 02:56:43;;;;;;;2.70;2.50;;;21.50;99.90;;;22.06;88.37;99816.88;4873310;29;20689;-66
2023/09/18 02:59:10;;;;;;;2.60;2.40;;;21.50;99.90;;;22.14;88.32;99811.34;4889697;29;20688;-67
2023/09/18 03:01:37;;;;;;;2.10;2.00;;;21.50;99.90;;;22.18;87.82;99792.16;4894762;29;20971;-66
2023/09/18 03:04:04;;;;;;;4.30;2.70;;;21.60;99.90;;;22.23;87.40;99783.56;4887278;29;20754;-65
2023/09/18 03:06:31;;;;;;;2.27;2.10;;;21.60;99.90;;;22.29;85.44;99780.91;4892049;29;20630;-66
2023/09/18 03:08:58;;;;;;;4.07;2.27;;;21.70;99.90;;;22.35;83.83;99789.88;4875414;29;20666;-65
2023/09/18 03:11:27;;;;;;;2.13;2.03;;;21.80;99.90;;;22.40;84.75;99793.53;4886611;29;21222;-66
2023/09/18 03:13:55;;;;;;;3.30;2.07;;;21.80;99.90;;;22.42;85.21;99788.03;4892818;29;20642;-69
2023/09/18 03:16:22;;;;;;;1.50;1.50;;;21.80;99.90;;;22.42;85.13;99795.19;4886162;29;20769;-66
2023/09/18 03:18:49;;;;;;;2.17;2.00;;;21.80;99.90;;;22.42;84.61;99788.03;4893736;29;20642;-67
2023/09/18 03:21:17;;;;;;;2.57;2.37;;;21.90;99.90;;;22.42;84.36;99796.03;4893398;29;21300;-68
2023/09/18 03:23:44;;;;;;;2.10;2.00;;;21.80;99.90;;;22.44;84.34;99798.47;4876524;29;20750;-65
2023/09/18 03:26:11;;;;;;;2.00;1.90;;;21.90;99.90;;;22.47;83.92;99792.75;4884320;29;20642;-65
2023/09/18 03:28:38;;;;;;;1.77;1.67;;;21.90;99.90;;;22.49;83.91;99780.06;4878797;29;20626;-66
2023/09/18 03:31:06;;;;;;;1.80;1.70;;;21.90;99.90;;;22.50;84.07;99769.22;4897107;29;20651;-65
2023/09/18 03:33:33;;;;;;;1.97;1.87;;;21.90;99.90;;;22.50;83.53;99758.56;4899545;29;20673;-66
2023/09/18 03:36:00;;;;;;;2.47;2.37;;;21.90;99.90;;;22.48;83.24;99779.25;4897440;29;20702;-64
2023/09/18 03:38:29;;;;;;;1.67;1.57;;;21.90;99.90;;;22.49;82.57;99772.09;4898772;29;20622;-66
2023/09/18 03:41:01;;;;;;;1.73;1.63;;;21.90;99.90;;;22.42;82.90;99769.44;4897931;29;20646;-67
2023/09/18 03:43:28;;;;;;;1.83;1.73;;;21.90;99.90;;;22.42;83.01;99786.19;4898207;29;20638;-66
2023/09/18 03:45:55;;;;;;;1.87;1.77;;;21.80;99.90;;;22.37;82.66;99801.94;4898610;29;20690;-66
2023/09/18 03:48:22;;;;;;;2.87;1.90;;;21.80;99.90;;;22.34;82.19;99804.19;4896872;29;20638;-66
2023/09/18 03:50:49;;;;;;;1.90;1.80;;;21.80;99.90;;;22.33;82.71;99810.53;4897879;29;21259;-66
2023/09/18 03:53:16;;;;;;;2.43;1.97;;;21.70;99.90;;;22.33;83.29;99814.00;4897161;29;20634;-66
2023/09/18 03:55:43;;;;;;;1.30;1.30;;;21.70;99.90;;;22.31;83.06;99818.72;4898742;29;21027;-65
2023/09/18 03:58:10;;;;;;;2.33;1.77;;;21.70;99.90;;;22.31;82.67;99818.72;4897110;29;20670;-65
2023/09/18 04:00:37;;;;;;;2.87;2.10;;;21.70;99.90;;;22.34;82.71;99828.09;4898591;29;20678;-67
2023/09/18 04:03:04;;;;;;;1.50;1.40;;;21.80;99.90;;;22.34;83.04;99830.75;4865547;29;20690;-66
2023/09/18 04:05:31;;;;;;;1.77;1.60;;;21.80;99.90;;;22.34;81.86;99817.47;4898412;29;20626;-68
2023/09/18 04:07:58;;;;;;;1.53;1.43;;;21.80;99.90;;;22.32;80.96;99817.69;4897604;29;21016;-66
2023/09/18 04:10:26;;;;;;;1.30;1.30;;;21.80;99.90;;;22.28;81.45;99802.34;4896398;29;20769;-66
2023/09/18 04:12:53;;;;;;;1.57;1.20;;;21.70;99.90;;;22.30;80.79;99789.66;4898080;29;21095;-66
2023/09/18 04:15:20;;;;;;;14.17;1.73;;;21.70;99.90;;;22.26;80.29;99793.75;4901051;29;21062;-65
2023/09/18 04:17:47;;;;;;;1.47;1.47;;;21.70;99.90;;;22.29;79.73;99799.50;4898964;29;20730;-66
2023/09/18 04:20:15;;;;;;;2.00;1.63;;;21.70;99.90;;;22.33;79.97;99799.91;4870408;29;20682;-66
2023/09/18 04:22:45;;;;;;;2.53;1.30;;;21.80;99.90;;;22.37;79.89;99785.19;4895199;29;20627;-66
2023/09/18 04:25:13;;;;;;;4.23;1.10;;;21.80;99.90;;;22.39;81.25;99764.53;4896381;29;20633;-67
2023/09/18 04:27:40;;;;;;;4.30;1.47;;;21.80;99.90;;;22.28;81.71;99770.47;4883587;29;20814;-67
2023/09/18 04:30:09;;;;;;;2.40;1.67;;;21.70;99.90;;;22.24;82.89;99753.31;4897019;29;20656;-68
2023/09/18 04:32:37;;;;;;;2.00;1.50;;;21.70;99.90;;;22.19;83.53;99758.44;4897123;29;20686;-69
2023/09/18 04:35:06;;;;;;;3.40;2.63;;;21.60;99.90;;;22.16;83.85;99761.50;4897449;29;20698;-67
2023/09/18 04:37:37;;;;;;;3.43;1.50;;;21.60;99.90;;;22.11;84.18;99746.16;4897308;29;20674;-66
2023/09/18 04:40:10;;;;;;;2.43;1.73;;;21.50;99.90;;;22.09;84.04;99747.38;4879315;29;20667;-66
2023/09/18 04:42:39;;;;;;;2.87;1.67;;;21.50;99.90;;;22.08;84.53;99754.53;4898162;29;20614;-66
2023/09/18 04:45:07;;;;;;;2.87;1.47;;;21.50;99.90;;;22.06;85.26;99745.94;4896565;29;20626;-66
2023/09/18 04:47:35;;;;;;;1.33;1.23;;;21.50;99.90;;;22.00;85.51;99752.09;4881266;29;20691;-67
2023/09/18 04:50:06;;;;;;;1.53;1.43;;;21.40;99.90;;;21.92;86.31;99739.00;4896652;29;20658;-67
2023/09/18 04:52:40;;;;;;;1.97;1.37;;;21.40;99.90;;;21.84;86.26;99733.09;4896981;29;20630;-69
2023/09/18 04:55:08;;;;;;;7.17;2.10;;;21.30;99.90;;;21.81;86.32;99730.81;4897272;29;21042;-66
2023/09/18 04:57:35;;;;;;;3.80;1.13;;;21.20;99.90;;;21.77;86.65;99745.50;4896624;29;20671;-67
2023/09/18 05:00:07;;;;;;;1.70;1.47;;;21.20;99.90;;;21.76;86.65;99755.34;4880376;29;20735;-66
2023/09/18 05:02:43;;;;;;;3.17;1.70;;;21.10;99.90;;;21.76;85.89;99770.44;4896336;29;20714;-66
2023/09/18 05:05:10;;;;;;;1.40;1.30;;;21.20;99.90;;;21.78;85.77;99787.00;4896071;29;20638;-66
2023/09/18 05:07:38;;;;;;;2.20;1.40;;;21.20;99.90;;;21.79;86.05;99783.28;4896626;29;20649;-66
2023/09/18 05:10:05;;;;;;;2.93;1.23;;;21.20;99.90;;;21.81;86.12;99792.69;4876082;29;20693;-66
2023/09/18 05:12:32;;;;;;;2.83;0.80;;;21.20;99.90;;;21.80;85.61;99798.22;4892097;29;20666;-67
2023/09/18 05:14:59;;;;;;;7.97;1.77;;;21.20;99.90;;;21.73;86.28;99795.56;4893139;29;20667;-67
2023/09/18 05:17:47;;;;;;;1.63;1.37;;;21.10;99.90;;;21.67;86.68;99808.81;4876491;29;20678;-66
2023/09/18 05:20:17;;;;;;;0.90;0.90;;;21.10;99.90;;;21.69;86.86;99823.53;4894499;29;20666;-68
2023/09/18 05:22:45;;;;;;;1.80;1.30;;;21.10;99.90;;;21.70;86.99;99840.28;4895442;29;21106;-66
2023/09/18 05:25:14;;;;;;;1.23;1.00;;;21.10;99.90;;;21.73;87.06;99846.00;4879773;29;20639;-66
2023/09/18 05:27:44;;;;;;;3.00;1.67;;;21.20;99.90;;;21.68;87.24;99843.13;4895768;29;20686;-66
2023/09/18 05:30:15;;;;;;;2.30;1.60;;;21.10;99.90;;;21.67;87.72;99857.44;4880108;29;20646;-67
2023/09/18 05:32:44;;;;;;;1.60;1.20;;;21.10;99.90;;;21.69;87.85;99849.25;4878663;29;21299;-65
2023/09/18 05:35:12;;;;;;;3.23;1.70;;;21.10;99.90;;;21.62;88.08;99834.13;4879350;29;20707;-69
2023/09/18 05:37:41;;;;;;;0.77;0.70;;;21.10;99.90;;;21.56;88.92;99844.72;4874258;29;20683;-66
2023/09/18 05:40:11;;;;;;;1.77;1.60;;;21.00;99.90;;;21.49;89.20;99827.97;4896296;29;20654;-66
2023/09/18 05:42:43;;;;;;;1.50;1.50;;;20.90;99.90;;;21.47;89.83;99814.06;4879145;29;20623;-66
2023/09/18 05:45:12;;;;;;;5.30;2.03;;;20.90;99.90;;;21.46;89.82;99810.63;4894631;29;20709;-66
2023/09/18 05:47:39;;;;;;;1.70;1.47;;;20.90;99.90;;;21.39;90.38;99828.34;4878634;29;20645;-68
2023/09/18 05:50:09;;;;;;;1.73;1.47;;;20.90;99.90;;;21.36;90.59;99817.31;4883394;29;20662;-66
2023/09/18 05:52:36;;;;;;;1.83;1.60;;;20.90;99.90;;;21.37;90.68;99806.50;4894403;29;20679;-67
2023/09/18 05:55:03;;;;;;;3.50;1.10;;;20.80;99.90;;;21.36;90.50;99788.13;4881995;29;20682;-66
2023/09/18 05:57:31;;;;;;;2.00;1.47;;;20.80;99.90;;;21.36;91.03;99778.31;4895935;29;20670;-67
2023/09/18 05:59:58;;;;;;;3.53;1.43;;;20.80;99.90;;;21.38;90.75;99792.19;4894509;29;20659;-65
2023/09/18 06:02:26;;;;;;;5.10;1.77;;;20.80;99.90;;;21.39;90.70;99814.25;4879859;29;21051;-66
2023/09/18 06:04:59;;;;;;;4.73;1.77;;;20.80;99.90;;;21.38;90.37;99818.72;4895123;29;21173;-65
2023/09/18 06:07:30;;;;;;;3.17;0.93;;;20.80;99.90;;;21.36;90.97;99815.47;4879173;29;20643;-65
2023/09/18 06:09:58;;;;;;;1.27;1.17;;;20.80;99.90;;;21.36;91.00;99812.81;4894471;29;21240;-65
2023/09/18 06:12:25;;;;;;;1.70;1.60;;;20.80;99.90;;;21.37;90.71;99814.47;4878622;29;20622;-68
2023/09/18 06:14:52;;;;;;;1.53;1.33;;;20.80;99.90;;;21.37;90.65;99819.75;4877549;29;20631;-66
2023/09/18 06:17:19;;;;;;;1.67;1.10;;;20.80;99.90;;;21.41;90.38;99815.69;4895732;29;21303;-68
2023/09/18 06:19:46;;;;;;;3.60;1.73;;;20.90;99.90;;;21.42;89.85;99822.63;4877385;29;20650;-65
2023/09/18 06:22:14;;;;;;;1.57;1.23;;;20.90;99.90;;;21.42;89.42;99812.00;4873162;29;20667;-66
2023/09/18 06:24:42;;;;;;;1.80;1.30;;;20.90;99.90;;;21.44;89.15;99825.09;4872050;29;20635;-67
2023/09/18 06:27:11;;;;;;;3.67;1.77;;;20.90;99.90;;;21.49;89.24;99820.00;4892216;29;20650;-66
2023/09/18 06:29:39;;;;;;;1.30;1.13;;;20.90;99.90;;;21.54;88.79;99834.31;4891747;29;20677;-69
2023/09/18 06:32:06;;;;;;;1.17;1.07;;;21.00;99.90;;;21.58;88.80;99832.91;4894384;29;20635;-65
2023/09/18 06:34:34;;;;;;;1.20;1.10;;;21.00;99.90;;;21.63;88.59;99851.72;4893530;29;20657;-65
2023/09/18 06:37:01;;;;;;;1.60;1.00;;;21.10;99.90;;;21.72;88.03;99849.69;4878649;29;20722;-67
2023/09/18 06:39:28;;;;;;;2.87;1.97;;;21.10;99.90;;;21.76;87.75;99855.41;4893690;29;20722;-69
2023/09/18 06:41:55;;;;;;;2.73;1.50;;;21.20;99.90;;;21.73;87.94;99859.28;4896006;29;20631;-66
2023/09/18 06:44:23;;;;;;;1.97;1.60;;;21.20;99.90;;;21.73;87.75;99850.47;4888227;29;20620;-67
2023/09/18 06:46:50;;;;;;;1.53;1.30;;;21.20;99.90;;;21.72;87.54;99865.63;4884202;29;20655;-69
2023/09/18 06:49:17;;;;;;;5.93;0.90;;;21.20;99.90;;;21.78;87.78;99866.66;4883361;29;20998;-65
2023/09/18 06:51:47;;;;;;;2.70;1.40;;;21.20;99.90;;;21.81;87.63;99875.00;4892585;29;21034;-67
2023/09/18 06:54:14;;;;;;;2.53;1.37;;;21.30;99.90;;;21.84;86.95;99887.13;4890560;29;20627;-66
2023/09/18 06:56:41;;;;;;;0.90;0.90;;;21.30;99.90;;;21.81;87.08;99885.63;4885402;29;20671;-66
2023/09/18 06:59:08;;;;;;;5.33;1.13;;;21.30;99.90;;;21.83;87.01;99888.16;4883102;29;20670;-66
2023/09/18 07:01:35;;;;;;;1.70;0.97;;;21.20;99.90;;;21.84;86.60;99881.81;4889298;29;21172;-67
2023/09/18 07:04:04;;;;;;;1.10;1.10;;;21.30;99.90;;;21.86;86.32;99877.09;4889694;29;21199;-67
2023/09/18 07:06:31;;;;;;;1.47;1.37;;;21.30;99.90;;;21.87;86.39;99887.53;4895552;29;20653;-67
2023/09/18 07:08:59;;;;;;;1.90;1.40;;;21.30;99.90;;;21.95;85.93;99889.19;4897624;29;21048;-69
2023/09/18 07:11:26;;;;;;;1.73;1.57;;;21.40;99.90;;;21.94;84.92;99888.38;4898762;29;20731;-66
2023/09/18 07:13:53;;;;;;;1.83;1.30;;;21.40;99.90;;;22.01;84.89;99909.63;4881707;29;20614;-66
2023/09/18 07:16:20;;;;;;;2.20;1.20;;;21.40;99.90;;;22.02;84.46;99900.66;4889910;29;21223;-65
2023/09/18 07:18:47;;;;;;;1.20;0.97;;;21.50;99.90;;;22.03;84.19;99907.59;4888127;29;20649;-68
2023/09/18 07:21:14;;;;;;;0.80;0.80;;;21.50;99.90;;;22.01;84.04;99914.94;4923877;23;20744;-65
2023/09/18 07:23:41;;;;;;;0.87;0.87;;;21.50;99.90;;;22.06;83.72;99918.63;4915405;29;20733;-65
2023/09/18 07:26:08;;;;;;;0.90;0.90;;;21.50;99.90;;;22.12;83.41;99914.34;4916909;29;20618;-66
2023/09/18 07:28:35;;;;;;;1.70;1.00;;;21.60;99.90;;;22.17;82.59;99917.22;4914803;29;20632;-66
2023/09/18 07:31:07;;;;;;;0.77;0.77;;;21.60;99.90;;;22.19;82.03;99902.72;4894387;29;20665;-65
2023/09/18 07:33:34;;;;;;;1.57;1.00;;;21.60;99.90;;;22.28;81.34;99909.47;4896153;29;20647;-66
2023/09/18 07:36:01;;;;;;;6.07;1.03;;;21.70;99.90;;;22.32;81.13;99912.53;4880141;29;20623;-66
2023/09/18 07:38:28;;;;;;;1.37;1.27;;;21.80;99.90;;;22.38;81.06;99909.88;4896977;29;20817;-66
2023/09/18 07:40:56;;;;;;;0.60;0.60;;;21.80;99.90;;;22.38;80.80;99912.53;4890735;29;21348;-66
2023/09/18 07:43:25;;;;;;;0.97;0.87;;;21.80;99.90;;;22.35;80.58;99914.78;4892611;29;20630;-66
2023/09/18 07:45:54;;;;;;;1.43;1.10;;;21.80;99.90;;;22.34;80.33;99924.59;4890788;29;20643;-67
2023/09/18 07:48:22;;;;;;;3.10;1.03;;;21.80;99.90;;;22.32;80.63;99918.66;4873992;29;20650;-66
2023/09/18 07:50:50;;;;;;;1.00;0.90;;;21.80;99.90;;;22.33;80.18;99922.97;4880463;29;20662;-66
2023/09/18 07:53:18;;;;;;;0.70;0.70;;;21.80;99.90;;;22.33;80.52;99938.09;4897376;29;20717;-65
2023/09/18 07:55:49;;;;;;;2.97;1.17;;;21.80;99.90;;;22.27;80.79;99936.25;4880042;29;21199;-65
2023/09/18 07:58:16;;;;;;;1.03;1.00;;;21.80;99.90;;;22.27;81.28;99946.88;4880615;29;20726;-65
2023/09/18 08:00:43;;;;;;;1.23;0.70;;;21.70;99.90;;;22.21;80.94;99940.53;4896227;29;20673;-65
2023/09/18 08:03:10;;;;;;;1.00;0.87;;;21.70;99.90;;;22.16;81.62;99937.66;4896872;29;20726;-65
2023/09/18 08:05:37;;;;;;;0.67;0.67;;;21.70;99.90;;;22.14;81.64;99954.81;4893090;29;20650;-65
2023/09/18 08:08:05;;;;;;;1.13;0.70;;;21.60;99.90;;;22.13;82.17;99950.50;4891882;29;20761;-65
2023/09/18 08:10:32;;;;;;;1.10;1.00;;;21.60;99.90;;;22.17;82.22;99952.56;4891526;29;20730;-64
2023/09/18 08:12:59;;;;;;;0.60;0.57;;;21.60;99.90;;;22.16;82.09;99952.78;4879580;29;20730;-65
2023/09/18 08:15:27;;;;;;;1.30;1.00;;;21.60;99.90;;;22.17;82.06;99943.78;4895145;29;20702;-65
2023/09/18 08:17:54;;;;;;;1.67;1.10;;;21.60;99.90;;;22.21;81.91;99950.34;4898030;29;20670;-64
2023/09/18 08:23:05;;;;;;;0.90;0.90;;;21.70;99.90;;;22.20;81.77;99938.91;5695286;23;21385;-67
2023/09/18 08:25:32;;;;;;;0.77;0.77;;;21.70;99.90;;;22.21;81.67;99945.84;4895019;29;20655;-67
2023/09/18 08:27:59;;;;;;;1.23;0.93;;;21.70;99.90;;;22.22;81.67;99944.00;4891179;29;20729;-67
2023/09/18 08:30:26;;;;;;;3.00;0.67;;;21.70;99.90;;;22.21;81.58;99939.72;4897593;29;20630;-69
2023/09/18 08:32:53;;;;;;;1.27;0.70;;;21.70;99.90;;;22.18;81.85;99950.75;4898145;29;21088;-68
2023/09/18 08:35:21;;;;;;;1.30;0.90;;;21.60;99.90;;;22.14;81.95;99931.75;4906899;29;20724;-67
2023/09/18 08:37:48;;;;;;;2.33;0.73;;;21.60;99.90;;;22.12;82.14;99928.47;4894914;29;22305;-67
2023/09/18 08:40:16;;;;;;;0.60;0.60;;;21.60;99.90;;;22.12;82.08;99927.63;4886117;29;20644;-67
2023/09/18 08:42:50;;;;;;;1.00;1.00;;;21.60;99.90;;;22.16;82.24;99926.22;4894560;29;20713;-66
2023/09/18 08:45:35;;;;;;;0.60;0.60;;;21.60;99.90;;;22.19;81.97;99920.50;4886896;29;20691;-67
2023/09/18 08:48:03;;;;;;;0.83;0.60;;;21.70;99.90;;;22.18;82.07;99917.03;4893794;29;20669;-66
2023/09/18 08:50:30;;;;;;;0.73;0.73;;;21.60;99.90;;;22.12;82.05;99919.66;4897177;29;20670;-67
2023/09/18 08:52:59;;;;;;;1.00;0.80;;;21.60;99.90;;;22.14;82.31;99917.63;4892843;29;20651;-66
2023/09/18 08:55:26;;;;;;;0.80;0.67;;;21.60;99.90;;;22.13;81.75;99922.13;4894205;29;21236;-68
2023/09/18 08:57:55;;;;;;;0.60;0.60;;;21.60;99.90;;;22.18;82.06;99925.00;4894613;29;20675;-67
2023/09/18 09:00:23;;;;;;;1.87;1.00;;;21.60;99.90;;;22.24;81.77;99928.66;4905278;29;20623;-68
2023/09/18 09:02:51;;;;;;;1.03;0.70;;;21.70;99.90;;;22.28;81.77;99927.25;4891703;29;21235;-69
2023/09/18 09:05:18;;;;;;;0.60;0.60;;;21.70;99.90;;;22.32;81.15;99923.97;4893102;29;20646;-68
2023/09/18 09:07:45;;;;;;;0.80;0.80;;;21.80;99.90;;;22.38;81.29;99917.06;4895227;29;20639;-68
2023/09/18 09:10:12;;;;;;;0.60;0.60;;;21.80;99.90;;;22.46;80.80;99919.50;4891493;29;20658;-68
2023/09/18 09:13:00;;;;;;;0.67;0.63;;;21.90;99.90;;;22.45;80.40;99917.84;4895849;29;20701;-68
2023/09/18 09:15:55;;;;;;;2.10;1.23;;;21.90;99.90;;;22.46;80.40;99930.16;4890616;29;21221;-66
2023/09/18 09:18:29;;;;;;;1.50;0.80;;;21.90;99.90;;;22.49;80.61;99943.00;4888581;29;20662;-68
2023/09/18 09:21:03;;;;;;;0.80;0.80;;;21.90;99.90;;;22.57;80.57;99966.75;4893840;29;20733;-68
2023/09/18 09:23:53;;;;;;;1.20;0.97;;;22.00;99.90;;;22.66;80.50;99978.06;4885143;29;20659;-68
2023/09/18 09:26:22;;;;;;;1.33;0.70;;;22.10;99.90;;;22.72;80.10;99975.38;4885941;29;21035;-68
2023/09/18 09:30:01;;;;;;;1.10;0.70;;;22.20;99.90;;;22.81;79.54;99968.00;5077686;27;20782;-66
2023/09/18 09:32:33;;;;;;;3.70;1.10;;;22.30;99.90;;;22.86;79.00;99982.34;5066170;28;21002;-67
2023/09/18 09:35:02;;;;;;;3.03;0.93;;;22.30;99.90;;;22.88;79.31;99979.47;5043019;28;20739;-65
2023/09/18 09:37:32;;;;;;;0.80;0.80;;;22.30;99.90;;;22.85;79.35;99983.34;5046798;28;20619;-68
2023/09/18 09:40:12;;;;;;;2.67;0.80;;;22.30;99.90;;;22.87;79.41;99975.97;5042751;28;21200;-66
2023/09/18 09:42:40;;;;;;;0.73;0.73;;;22.30;99.90;;;22.87;79.32;99978.66;5047078;28;20719;-66
2023/09/18 09:45:15;;;;;;;0.83;0.83;;;22.40;99.90;;;22.84;79.09;99979.06;5045174;28;20639;-67
2023/09/18 09:47:43;;;;;;;0.60;0.60;;;22.30;99.90;;;22.76;79.73;99976.63;5047322;28;20996;-65
2023/09/18 09:50:18;;;;;;;3.53;0.97;;;22.20;99.90;;;22.69;79.83;99967.81;5044096;28;20667;-64
2023/09/18 09:52:50;;;;;;;0.80;0.80;;;22.20;99.90;;;22.66;79.78;99973.53;5037977;28;21288;-67
2023/09/18 09:55:30;;;;;;;0.70;0.70;;;22.10;99.90;;;22.61;80.30;99961.88;5038857;28;20620;-66
2023/09/18 09:58:06;;;;;;;0.73;0.70;;;22.10;99.90;;;22.59;80.21;99963.94;5046084;28;20666;-69
2023/09/18 10:00:51;;;;;;;0.93;0.83;;;22.10;99.90;;;22.56;80.66;99959.78;5037236;28;20726;-67
2023/09/18 10:03:20;;;;;;;0.50;0.50;;;22.00;99.90;;;22.55;80.84;99960.84;5035915;28;20645;-65
2023/09/18 10:05:53;;;;;;;1.40;1.30;;;22.00;99.90;;;22.59;80.95;99958.59;5046831;28;20707;-66
2023/09/18 10:08:26;;;;;;;0.87;0.70;;;22.00;99.90;;;22.60;80.78;99945.09;5044249;28;20663;-66
2023/09/18 10:11:01;;;;;;;0.80;0.80;;;22.10;99.90;;;22.69;80.46;99953.69;5044910;28;21001;-67
2023/09/18 10:13:52;;;;;;;4.83;1.00;;;22.10;99.90;;;22.79;80.33;99957.56;5044877;28;20643;-67
2023/09/18 10:16:25;;;;;;;2.50;1.13;;;22.20;99.90;;;22.90;79.28;99956.13;5040564;28;20709;-68
2023/09/18 10:19:16;;;;;;;1.20;1.10;;;22.30;99.90;;;22.95;79.15;99959.00;5040267;28;20620;-66
2023/09/18 10:22:10;;;;;;;0.80;0.80;;;22.40;99.90;;;22.99;78.99;99961.06;5046002;28;20627;-67
2023/09/18 10:24:41;;;;;;;0.73;0.73;;;22.50;99.90;;;23.00;78.82;99973.31;5041257;28;20724;-67
2023/09/18 10:27:11;;;;;;;0.60;0.60;;;22.40;99.90;;;23.04;78.26;99958.56;5046336;28;20627;-69
2023/09/18 10:29:41;;;;;;;1.23;0.70;;;22.50;99.90;;;23.04;78.82;99939.94;5057391;28;20672;-69
2023/09/18 10:32:08;;;;;;;0.60;0.60;;;22.50;99.90;;;23.10;78.84;99946.31;5060023;28;20616;-67